Terminal Aerodrome Forecast
Issued by NWS Greer, SC

Home | Current Version | Previous Version | Graphics & Text | Print | Product List | Glossary On
Versions: 1 2 3 4 5 6 7 8 9 10 11 12 13 14 15 16 17 18 19 20 21 22 23 24 25 26 27 28 29 30 31 32 33 34 35 36 37 38 39 40
000
FTUS42 KGSP 011800 AAA
TAFAVL
TAF AMD
KAVL 011802Z 0118/0218 35006KT P6SM SCT020 OVC040
     FM012100 35003KT P6SM VCTS SCT020 BKN045CB
     FM020300 00000KT P6SM BKN018
     FM020600 00000KT P6SM BKN008
      TEMPO 0209/0213 1 1/2SM BR BKN002
     FM021300 32004KT P6SM BKN020
     FM021400 33004KT P6SM BKN050=

USA.gov is the U.S. government's official web portal to all federal, state and local government web resources and services.